createdAt,value
2018-01-30T00:01:46.340Z,79.67
2018-01-30T00:04:13.861Z,79.56
2018-01-30T00:06:41.377Z,79.83
2018-01-30T00:09:08.925Z,80.23
2018-01-30T00:11:36.453Z,80.12
2018-01-30T00:14:04.039Z,79.98
2018-01-30T00:16:31.678Z,80.14
2018-01-30T00:18:59.213Z,80.45
2018-01-30T00:21:26.768Z,80.23
2018-01-30T00:23:54.352Z,80.23
2018-01-30T00:26:21.877Z,80.27
2018-01-30T00:28:49.388Z,79.94
2018-01-30T00:31:16.920Z,79.92
2018-01-30T00:33:44.491Z,79.87
2018-01-30T00:36:12.015Z,79.50
2018-01-30T00:38:39.542Z,79.41
2018-01-30T00:41:07.192Z,79.52
2018-01-30T00:43:34.712Z,79.73
2018-01-30T00:46:02.237Z,79.67
2018-01-30T00:48:29.746Z,79.61
2018-01-30T00:50:57.264Z,79.83
2018-01-30T00:53:24.774Z,80.17
2018-01-30T00:55:52.293Z,80.29
2018-01-30T00:58:19.839Z,80.57
2018-01-30T01:00:47.337Z,80.37
2018-01-30T01:03:14.852Z,80.16
2018-01-30T01:05:42.408Z,80.13
2018-01-30T01:08:09.914Z,79.82
2018-01-30T01:10:37.446Z,79.35
2018-01-30T01:13:05.129Z,78.97
2018-01-30T01:15:32.654Z,79.18
2018-01-30T01:18:00.253Z,78.87
2018-01-30T01:20:27.757Z,78.33
2018-01-30T01:22:55.273Z,78.02
2018-01-30T01:25:22.767Z,78.56
2018-01-30T01:27:50.285Z,77.63
2018-01-30T01:30:17.825Z,77.40
2018-01-30T01:32:45.406Z,77.76
2018-01-30T01:35:13.362Z,77.76
2018-01-30T01:37:40.908Z,77.78
2018-01-30T01:40:08.417Z,77.50
2018-01-30T01:42:35.963Z,77.44
2018-01-30T01:45:03.505Z,77.24
2018-01-30T01:47:31.009Z,77.36
2018-01-30T01:49:58.501Z,77.37
2018-01-30T01:52:26.025Z,77.93
2018-01-30T01:54:53.540Z,78.12
2018-01-30T01:57:21.059Z,78.31
2018-01-30T01:59:48.783Z,78.09
2018-01-30T02:02:16.285Z,78.25
2018-01-30T02:04:43.812Z,78.40
2018-01-30T02:07:11.342Z,78.57
2018-01-30T02:09:38.865Z,78.66
2018-01-30T02:12:06.492Z,78.36
2018-01-30T02:14:33.988Z,77.97
2018-01-30T02:17:01.513Z,78.23
2018-01-30T02:19:29.234Z,78.67
2018-01-30T02:21:56.728Z,78.77
2018-01-30T02:24:24.220Z,78.68
2018-01-30T02:26:51.760Z,79.04
2018-01-30T02:29:19.260Z,78.87
2018-01-30T02:31:46.776Z,78.95
2018-01-30T02:34:14.324Z,79.14
2018-01-30T02:36:41.859Z,79.52
2018-01-30T02:39:09.361Z,79.59
2018-01-30T02:41:36.902Z,79.59
2018-01-30T02:44:04.413Z,79.98
2018-01-30T02:46:31.912Z,80.66
2018-01-30T02:48:59.437Z,81.30
2018-01-30T02:51:26.945Z,82.00
2018-01-30T02:53:54.461Z,82.60
2018-01-30T02:56:22.012Z,82.85
2018-01-30T02:58:49.564Z,83.22
2018-01-30T03:01:17.060Z,82.23
2018-01-30T03:03:44.568Z,82.29
2018-01-30T03:06:12.093Z,82.43
2018-01-30T03:08:39.597Z,82.35
2018-01-30T03:11:07.293Z,82.16
2018-01-30T03:13:34.791Z,81.57
2018-01-30T03:16:02.312Z,80.73
2018-01-30T03:18:29.833Z,80.78
2018-01-30T03:20:57.330Z,80.29
2018-01-30T03:23:24.888Z,79.79
2018-01-30T03:25:52.421Z,79.78
2018-01-30T03:28:19.929Z,79.77
2018-01-30T03:30:47.553Z,79.85
2018-01-30T03:33:15.073Z,79.65
2018-01-30T03:35:42.567Z,79.44
2018-01-30T03:38:10.061Z,78.84
2018-01-30T03:40:37.784Z,78.10
2018-01-30T03:43:05.278Z,77.51
2018-01-30T03:45:32.813Z,76.54
2018-01-30T03:48:00.324Z,76.34
2018-01-30T03:50:27.928Z,77.62
2018-01-30T03:52:55.456Z,77.66
2018-01-30T03:55:22.981Z,76.89
2018-01-30T03:57:50.482Z,76.41
2018-01-30T04:00:18.062Z,76.57
2018-01-30T04:02:45.579Z,76.04
2018-01-30T04:05:13.076Z,76.04
2018-01-30T04:07:40.689Z,75.90
2018-01-30T04:10:08.277Z,76.14
2018-01-30T04:12:35.805Z,75.66
2018-01-30T04:15:03.429Z,75.81
2018-01-30T04:17:31.171Z,75.95
2018-01-30T04:19:58.664Z,76.43
2018-01-30T04:22:26.203Z,76.77
2018-01-30T04:24:53.736Z,77.18
2018-01-30T04:27:21.233Z,76.89
2018-01-30T04:29:48.776Z,77.27
2018-01-30T04:32:16.292Z,77.49
2018-01-30T04:34:43.880Z,77.50
2018-01-30T04:37:11.436Z,77.32
2018-01-30T04:39:38.941Z,77.45
2018-01-30T04:42:06.488Z,77.83
2018-01-30T04:44:34.128Z,78.23
2018-01-30T04:47:01.693Z,78.05
2018-01-30T04:49:29.189Z,78.39
2018-01-30T04:51:56.714Z,78.31
2018-01-30T04:54:24.225Z,78.33
2018-01-30T04:56:51.758Z,78.44
2018-01-30T04:59:19.253Z,78.65
2018-01-30T05:01:46.772Z,78.74
2018-01-30T05:04:14.405Z,78.83
2018-01-30T05:06:41.906Z,78.59
2018-01-30T05:09:09.399Z,78.54
2018-01-30T05:11:36.945Z,78.59
2018-01-30T05:14:04.468Z,78.72
2018-01-30T05:16:32.068Z,78.78
2018-01-30T05:18:59.611Z,79.28
2018-01-30T05:21:27.148Z,79.24
2018-01-30T05:23:54.763Z,79.35
2018-01-30T05:26:22.280Z,79.27
2018-01-30T05:28:49.824Z,79.33
2018-01-30T05:31:17.350Z,78.83
2018-01-30T05:33:44.908Z,78.80
2018-01-30T05:36:12.473Z,78.33
2018-01-30T05:38:39.989Z,78.29
2018-01-30T05:41:08.489Z,78.35
2018-01-30T05:43:36.004Z,78.04
2018-01-30T05:46:03.617Z,77.15
2018-01-30T05:48:31.153Z,76.79
2018-01-30T05:50:58.828Z,76.87
2018-01-30T05:53:26.325Z,75.81
2018-01-30T05:55:53.848Z,75.77
2018-01-30T05:58:21.412Z,75.71
2018-01-30T06:00:48.921Z,75.98
2018-01-30T06:03:16.421Z,76.04
2018-01-30T06:05:43.937Z,75.92
2018-01-30T06:08:11.438Z,75.93
2018-01-30T06:10:38.999Z,75.94
2018-01-30T06:13:06.507Z,76.13
2018-01-30T06:15:33.996Z,76.50
2018-01-30T06:18:01.545Z,76.44
2018-01-30T06:20:29.094Z,76.17
2018-01-30T06:22:56.590Z,76.15
2018-01-30T06:25:24.080Z,75.87
2018-01-30T06:27:51.669Z,76.02
2018-01-30T06:30:19.265Z,75.96
2018-01-30T06:32:46.771Z,75.87
2018-01-30T06:35:14.408Z,75.65
2018-01-30T06:37:41.965Z,76.07
2018-01-30T06:40:09.464Z,76.07
2018-01-30T06:42:37.000Z,75.93
2018-01-30T06:45:04.534Z,76.08
2018-01-30T06:47:32.055Z,75.64
2018-01-30T06:49:59.577Z,75.73
2018-01-30T06:52:27.101Z,75.24
2018-01-30T06:54:54.629Z,75.10
2018-01-30T06:57:22.149Z,75.10
2018-01-30T06:59:49.645Z,74.74
2018-01-30T07:02:17.169Z,74.95
2018-01-30T07:04:44.702Z,74.82
2018-01-30T07:07:12.227Z,74.49
2018-01-30T07:09:39.816Z,74.55
2018-01-30T07:12:07.337Z,74.68
2018-01-30T07:14:34.864Z,74.29
2018-01-30T07:17:02.493Z,74.48
2018-01-30T07:19:29.997Z,74.41
2018-01-30T07:21:57.523Z,74.44
2018-01-30T07:24:25.289Z,75.07
2018-01-30T07:26:52.789Z,74.33
2018-01-30T07:29:20.393Z,74.07
2018-01-30T07:31:47.948Z,73.98
2018-01-30T07:34:15.508Z,74.06
2018-01-30T07:36:43.033Z,74.00
2018-01-30T07:39:10.650Z,73.89
2018-01-30T07:41:38.209Z,73.90
2018-01-30T07:44:05.747Z,73.95
2018-01-30T07:46:33.319Z,73.91
2018-01-30T07:49:00.838Z,74.06
2018-01-30T07:51:28.424Z,73.93
2018-01-30T07:53:55.950Z,74.35
2018-01-30T07:56:23.460Z,74.50
2018-01-30T07:58:51.016Z,74.28
2018-01-30T08:01:18.545Z,74.36
2018-01-30T08:03:46.049Z,74.34
2018-01-30T08:06:13.792Z,74.44
2018-01-30T08:08:41.309Z,74.31
2018-01-30T08:11:08.821Z,74.22
2018-01-30T08:13:36.373Z,74.56
2018-01-30T08:16:03.905Z,74.59
2018-01-30T08:18:31.429Z,74.74
2018-01-30T08:20:58.962Z,74.20
2018-01-30T08:23:26.496Z,74.57
2018-01-30T08:25:54.005Z,74.58
2018-01-30T08:28:21.609Z,74.51
2018-01-30T08:30:49.128Z,74.53
2018-01-30T08:33:16.660Z,74.76
2018-01-30T08:35:44.183Z,74.91
2018-01-30T08:38:11.700Z,74.38
2018-01-30T08:40:39.239Z,74.79
2018-01-30T08:43:06.764Z,74.61
2018-01-30T08:45:34.304Z,74.85
2018-01-30T08:48:01.853Z,74.74
2018-01-30T08:50:29.390Z,74.95
2018-01-30T08:52:56.918Z,74.78
2018-01-30T08:55:24.470Z,74.54
2018-01-30T08:57:51.996Z,74.42
2018-01-30T09:00:19.594Z,74.19
2018-01-30T09:02:47.139Z,73.81
2018-01-30T09:05:14.665Z,73.80
2018-01-30T09:07:42.204Z,74.18
2018-01-30T09:10:09.749Z,73.99
2018-01-30T09:12:37.248Z,74.42
2018-01-30T09:15:04.772Z,73.77
2018-01-30T09:17:32.391Z,73.96
2018-01-30T09:19:59.889Z,74.08
2018-01-30T09:22:27.478Z,73.69
2018-01-30T09:24:55.033Z,73.18
2018-01-30T09:27:22.538Z,73.01
2018-01-30T09:29:50.038Z,72.83
2018-01-30T09:32:17.550Z,72.63
2018-01-30T09:34:45.128Z,72.36
2018-01-30T09:37:12.703Z,72.74
2018-01-30T09:39:40.199Z,72.68
2018-01-30T09:42:07.716Z,72.72
2018-01-30T09:44:35.314Z,72.64
2018-01-30T09:47:02.813Z,72.58
2018-01-30T09:49:31.236Z,73.01
2018-01-30T09:51:58.841Z,72.87
2018-01-30T09:54:26.332Z,72.43
2018-01-30T09:56:53.881Z,72.29
2018-01-30T09:59:21.433Z,72.03
2018-01-30T10:01:48.933Z,72.07
2018-01-30T10:04:16.495Z,72.61
2018-01-30T10:06:44.025Z,72.78
2018-01-30T10:09:11.881Z,72.33
2018-01-30T10:11:39.417Z,72.50
2018-01-30T10:14:06.969Z,72.36
2018-01-30T10:16:34.772Z,72.20
2018-01-30T10:19:02.297Z,71.59
2018-01-30T10:21:29.853Z,71.76
2018-01-30T10:23:57.381Z,72.18
2018-01-30T10:26:24.901Z,71.30
2018-01-30T10:28:52.433Z,71.69
2018-01-30T10:31:19.954Z,71.80
2018-01-30T10:33:47.470Z,72.15
2018-01-30T10:36:14.982Z,72.72
2018-01-30T10:38:42.543Z,72.27
2018-01-30T10:41:10.214Z,72.10
2018-01-30T10:43:37.722Z,72.41
2018-01-30T10:46:05.297Z,71.50
2018-01-30T10:48:32.828Z,72.25
2018-01-30T10:51:00.358Z,71.73
2018-01-30T10:53:27.901Z,72.24
2018-01-30T10:55:55.442Z,71.78
2018-01-30T10:58:22.941Z,71.55
2018-01-30T11:00:51.151Z,71.39
2018-01-30T11:03:18.744Z,71.70
2018-01-30T11:05:46.396Z,71.98
2018-01-30T11:08:13.925Z,72.48
2018-01-30T11:10:41.460Z,71.82
2018-01-30T11:13:08.965Z,72.24
2018-01-30T11:15:36.811Z,72.42
2018-01-30T11:18:04.317Z,72.41
2018-01-30T11:20:31.816Z,72.41
2018-01-30T11:22:59.378Z,72.25
2018-01-30T11:25:26.901Z,72.11
2018-01-30T11:27:54.430Z,72.67
2018-01-30T11:30:21.988Z,72.24
2018-01-30T11:32:49.512Z,72.17
2018-01-30T11:35:17.015Z,72.41
2018-01-30T11:37:44.593Z,72.21
2018-01-30T11:40:12.101Z,71.55
2018-01-30T11:42:39.621Z,71.35
2018-01-30T11:45:07.206Z,71.02
2018-01-30T11:47:34.740Z,71.34
2018-01-30T11:50:02.357Z,71.52
2018-01-30T11:52:29.879Z,71.37
2018-01-30T11:54:57.405Z,70.80
2018-01-30T11:57:24.914Z,71.27
2018-01-30T11:59:52.497Z,71.58
2018-01-30T12:02:20.004Z,71.38
2018-01-30T12:04:47.497Z,71.04
2018-01-30T12:07:15.100Z,71.13
2018-01-30T12:09:42.621Z,71.49
2018-01-30T12:12:10.229Z,70.89
2018-01-30T12:14:37.792Z,70.09
2018-01-30T12:17:05.455Z,70.51
2018-01-30T12:19:32.988Z,69.58
2018-01-30T12:22:00.529Z,69.76
2018-01-30T12:24:28.059Z,69.38
2018-01-30T12:26:55.690Z,69.44
2018-01-30T12:29:23.212Z,70.03
2018-01-30T12:31:51.104Z,70.36
2018-01-30T12:34:18.653Z,69.17
2018-01-30T12:36:46.188Z,68.35
2018-01-30T12:39:13.816Z,68.61
2018-01-30T12:41:41.401Z,67.65
2018-01-30T12:44:08.912Z,68.03
2018-01-30T12:46:36.443Z,68.01
2018-01-30T12:49:04.031Z,67.13
2018-01-30T12:51:31.537Z,67.26
2018-01-30T12:53:59.065Z,67.18
2018-01-30T12:56:26.832Z,67.09
2018-01-30T12:58:54.332Z,67.61
2018-01-30T13:01:21.854Z,67.43
2018-01-30T13:03:49.384Z,67.57
2018-01-30T13:06:16.905Z,67.96
2018-01-30T13:08:44.448Z,67.79
2018-01-30T13:11:11.975Z,67.88
2018-01-30T13:13:39.473Z,68.00
2018-01-30T13:16:06.984Z,68.33
2018-01-30T13:18:34.485Z,68.22
2018-01-30T13:21:02.662Z,67.53
2018-01-30T13:23:30.193Z,67.66
2018-01-30T13:25:57.752Z,67.49
2018-01-30T13:28:25.276Z,67.25
2018-01-30T13:30:52.984Z,67.10
2018-01-30T13:33:20.513Z,67.38
2018-01-30T13:35:48.022Z,67.32
2018-01-30T13:38:15.586Z,67.13
2018-01-30T13:40:43.112Z,66.44
2018-01-30T13:43:10.629Z,67.15
2018-01-30T13:45:38.255Z,67.27
2018-01-30T13:48:05.810Z,66.35
2018-01-30T13:50:33.318Z,66.66
2018-01-30T13:53:00.935Z,66.39
2018-01-30T13:55:28.468Z,65.93
2018-01-30T13:57:56.073Z,66.40
2018-01-30T14:00:23.612Z,66.01
2018-01-30T14:02:51.117Z,65.68
2018-01-30T14:05:18.668Z,66.31
2018-01-30T14:07:46.283Z,65.87
2018-01-30T14:10:13.805Z,64.91
2018-01-30T14:12:41.346Z,65.44
2018-01-30T14:15:08.872Z,65.36
2018-01-30T14:17:36.396Z,65.19
2018-01-30T14:20:03.914Z,65.39
2018-01-30T14:22:31.442Z,65.40
2018-01-30T14:24:58.934Z,65.08
2018-01-30T14:27:26.465Z,65.19
2018-01-30T14:29:54.233Z,65.17
2018-01-30T14:32:21.729Z,64.89
2018-01-30T14:34:49.236Z,64.93
2018-01-30T14:37:16.765Z,64.87
2018-01-30T14:39:44.261Z,65.33
2018-01-30T14:42:11.764Z,64.69
2018-01-30T14:44:39.581Z,64.65
2018-01-30T14:47:07.080Z,64.45
2018-01-30T14:49:34.603Z,64.95
2018-01-30T14:52:02.129Z,64.85
2018-01-30T14:54:29.668Z,64.87
2018-01-30T14:56:57.189Z,64.56
2018-01-30T14:59:24.683Z,64.68
2018-01-30T15:01:52.192Z,64.55
2018-01-30T15:04:19.891Z,64.46
2018-01-30T15:06:47.389Z,64.58
2018-01-30T15:09:15.632Z,65.11
2018-01-30T15:11:43.180Z,65.09
2018-01-30T15:14:10.949Z,65.17
2018-01-30T15:16:38.445Z,64.21
2018-01-30T15:19:05.972Z,64.35
2018-01-30T15:21:33.552Z,64.71
2018-01-30T15:24:01.301Z,64.48
2018-01-30T15:26:28.803Z,64.64
2018-01-30T15:28:56.312Z,64.83
2018-01-30T15:31:23.860Z,65.01
2018-01-30T15:33:51.364Z,65.67
2018-01-30T15:36:18.890Z,65.04
2018-01-30T15:38:46.426Z,65.20
2018-01-30T15:41:13.977Z,65.32
2018-01-30T15:43:41.490Z,65.93
2018-01-30T15:46:09.147Z,65.51
2018-01-30T15:48:36.732Z,65.74
2018-01-30T15:51:04.261Z,65.68
2018-01-30T15:53:31.824Z,66.02
2018-01-30T15:55:59.332Z,65.91
2018-01-30T15:58:26.954Z,66.43
2018-01-30T16:00:54.508Z,66.56
2018-01-30T16:03:22.056Z,66.29
2018-01-30T16:05:49.553Z,66.08
2018-01-30T16:08:17.141Z,66.19
2018-01-30T16:10:44.644Z,65.81
2018-01-30T16:13:12.165Z,66.07
2018-01-30T16:15:39.706Z,66.39
2018-01-30T16:18:07.430Z,66.29
2018-01-30T16:20:34.988Z,66.98
2018-01-30T16:23:02.546Z,67.04
2018-01-30T16:25:30.130Z,67.19
2018-01-30T16:27:57.654Z,67.27
2018-01-30T16:30:25.145Z,68.05
2018-01-30T16:32:52.663Z,68.31
2018-01-30T16:35:20.201Z,68.54
2018-01-30T16:37:47.737Z,68.35
2018-01-30T16:40:15.285Z,68.81
2018-01-30T16:42:42.805Z,68.44
2018-01-30T16:45:10.345Z,68.92
2018-01-30T16:47:37.841Z,68.44
2018-01-30T16:50:05.345Z,68.75
2018-01-30T16:52:32.890Z,68.91
2018-01-30T16:55:00.459Z,69.04
2018-01-30T16:57:27.984Z,68.66
2018-01-30T16:59:55.516Z,69.46
2018-01-30T17:02:23.131Z,69.44
2018-01-30T17:04:50.685Z,69.05
2018-01-30T17:07:18.189Z,69.79
2018-01-30T17:09:45.721Z,69.99
2018-01-30T17:12:13.222Z,69.88
2018-01-30T17:14:40.930Z,70.13
2018-01-30T17:17:08.452Z,70.49
2018-01-30T17:19:36.004Z,70.86
2018-01-30T17:22:03.676Z,70.81
2018-01-30T17:24:31.225Z,70.67
2018-01-30T17:26:58.738Z,71.06
2018-01-30T17:29:26.289Z,70.90
2018-01-30T17:31:53.785Z,70.93
2018-01-30T17:34:21.313Z,70.56
2018-01-30T17:36:48.881Z,70.86
2018-01-30T17:39:16.433Z,71.04
2018-01-30T17:41:43.972Z,71.43
2018-01-30T17:44:11.487Z,71.26
2018-01-30T17:46:39.006Z,71.23
2018-01-30T17:49:06.568Z,71.36
2018-01-30T17:51:34.082Z,71.24
2018-01-30T17:54:01.628Z,71.46
2018-01-30T17:56:29.137Z,71.46
2018-01-30T17:58:56.670Z,71.67
2018-01-30T18:01:24.237Z,71.46
2018-01-30T18:03:51.765Z,71.49
2018-01-30T18:06:19.401Z,71.71
2018-01-30T18:08:46.901Z,71.76
2018-01-30T18:11:14.453Z,72.07
2018-01-30T18:13:42.071Z,71.90
2018-01-30T18:16:09.630Z,72.39
2018-01-30T18:18:37.134Z,72.56
2018-01-30T18:21:04.674Z,72.46
2018-01-30T18:23:32.177Z,72.78
2018-01-30T18:25:59.701Z,72.97
2018-01-30T18:28:27.213Z,73.08
2018-01-30T18:30:54.735Z,73.34
2018-01-30T18:33:22.261Z,73.66
2018-01-30T18:35:49.803Z,73.64
2018-01-30T18:38:17.363Z,73.62
2018-01-30T18:40:44.870Z,73.80
2018-01-30T18:43:12.379Z,74.09
2018-01-30T18:45:39.889Z,74.69
2018-01-30T18:48:07.521Z,74.49
2018-01-30T18:50:35.060Z,74.52
2018-01-30T18:53:03.668Z,74.59
2018-01-30T18:55:31.206Z,74.58
2018-01-30T18:57:58.736Z,74.45
2018-01-30T19:00:26.294Z,74.50
2018-01-30T19:02:53.802Z,74.90
2018-01-30T19:05:21.563Z,74.74
2018-01-30T19:07:49.084Z,74.62
2018-01-30T19:10:16.674Z,74.94
2018-01-30T19:12:44.205Z,74.96
2018-01-30T19:15:11.724Z,74.60
2018-01-30T19:17:39.309Z,74.95
2018-01-30T19:20:06.924Z,74.94
2018-01-30T19:22:34.424Z,74.87
2018-01-30T19:25:01.942Z,75.31
2018-01-30T19:27:29.487Z,75.33
2018-01-30T19:29:57.009Z,75.36
2018-01-30T19:32:24.518Z,75.72
2018-01-30T19:34:52.041Z,75.44
2018-01-30T19:37:19.857Z,75.25
2018-01-30T19:39:47.360Z,75.54
2018-01-30T19:42:14.946Z,75.35
2018-01-30T19:44:42.448Z,75.80
2018-01-30T19:47:10.180Z,75.11
2018-01-30T19:49:37.704Z,75.44
2018-01-30T19:52:05.234Z,75.51
2018-01-30T19:54:32.773Z,75.53
2018-01-30T19:57:00.404Z,75.69
2018-01-30T19:59:27.964Z,75.56
2018-01-30T20:01:55.507Z,75.52
2018-01-30T20:04:23.100Z,75.74
2018-01-30T20:06:50.600Z,75.62
2018-01-30T20:09:18.225Z,75.52
2018-01-30T20:11:45.761Z,75.72
2018-01-30T20:14:13.308Z,75.74
2018-01-30T20:16:40.881Z,75.87
2018-01-30T20:19:08.465Z,75.93
2018-01-30T20:21:35.992Z,75.93
2018-01-30T20:24:03.949Z,75.85
2018-01-30T20:26:37.108Z,76.08
2018-01-30T20:29:04.683Z,76.30
2018-01-30T20:31:32.325Z,76.40
2018-01-30T20:33:59.826Z,76.35
2018-01-30T20:36:27.349Z,76.12
2018-01-30T20:38:55.185Z,76.43
2018-01-30T20:41:22.681Z,76.19
2018-01-30T20:43:50.180Z,76.19
2018-01-30T20:46:17.723Z,76.21
2018-01-30T20:48:45.246Z,76.51
2018-01-30T20:51:12.758Z,76.65
2018-01-30T20:53:40.280Z,76.71
2018-01-30T20:56:07.902Z,76.71
2018-01-30T20:58:35.412Z,76.82
2018-01-30T21:01:02.949Z,77.13
2018-01-30T21:03:30.554Z,77.28
2018-01-30T21:05:58.049Z,77.72
2018-01-30T21:08:25.670Z,78.33
2018-01-30T21:10:53.196Z,77.75
2018-01-30T21:13:20.801Z,77.87
2018-01-30T21:15:48.356Z,77.96
2018-01-30T21:18:15.885Z,77.99
2018-01-30T21:20:43.408Z,78.00
2018-01-30T21:23:10.941Z,77.84
2018-01-30T21:25:38.432Z,78.36
2018-01-30T21:28:06.039Z,78.10
2018-01-30T21:30:33.538Z,78.19
2018-01-30T21:33:01.060Z,78.19
2018-01-30T21:35:28.601Z,78.26
2018-01-30T21:37:56.121Z,78.57
2018-01-30T21:40:23.628Z,79.11
2018-01-30T21:42:51.324Z,78.56
2018-01-30T21:45:18.837Z,78.39
2018-01-30T21:47:46.360Z,78.20
2018-01-30T21:50:13.916Z,78.53
2018-01-30T21:52:41.434Z,78.47
2018-01-30T21:55:08.994Z,78.51
2018-01-30T21:57:36.516Z,78.70
2018-01-30T22:00:04.115Z,78.56
2018-01-30T22:02:31.641Z,78.26
2018-01-30T22:04:59.165Z,78.37
2018-01-30T22:07:26.681Z,78.38
2018-01-30T22:09:54.255Z,78.34
2018-01-30T22:12:21.800Z,78.50
2018-01-30T22:14:49.410Z,78.16
2018-01-30T22:17:17.042Z,78.15
2018-01-30T22:19:44.612Z,78.11
2018-01-30T22:22:12.111Z,77.99
2018-01-30T22:24:39.684Z,78.58
2018-01-30T22:27:07.209Z,78.44
2018-01-30T22:29:34.705Z,78.50
2018-01-30T22:32:02.215Z,78.70
2018-01-30T22:34:29.841Z,78.92
2018-01-30T22:36:57.336Z,78.73
2018-01-30T22:39:24.879Z,78.73
2018-01-30T22:41:52.619Z,78.69
2018-01-30T22:44:29.938Z,78.77
2018-01-30T22:46:47.655Z,78.77
